Terminal Aerodrome Forecast
Issued by NWS Cleveland, OH

Home | Current Version | Previous Version | Graphics & Text | Print | Product List | Glossary On
Versions: 1 2 3 4 5 6 7 8 9 10 11 12 13 14 15 16 17 18 19 20 21 22 23
000
FTUS41 KCLE 061500 AAA
TAFMFD
TAF AMD
KMFD 061505Z 0615/0712 32006KT 5SM HZ SCT004
     FM061700 33005KT P6SM SCT015
     FM070600 VRB03KT 4SM BR SCT250
     FM070800 00000KT 2SM BR SCT004=

USA.gov is the U.S. government's official web portal to all federal, state and local government web resources and services.